createdAt,value
2018-04-09T00:01:25.999Z,19.53
2018-04-09T00:03:54.344Z,19.73
2018-04-09T00:06:21.913Z,19.80
2018-04-09T00:08:49.494Z,19.50
2018-04-09T00:11:17.844Z,18.57
2018-04-09T00:13:45.415Z,20.63
2018-04-09T00:16:13.024Z,19.13
2018-04-09T00:18:40.624Z,19.93
2018-04-09T00:21:08.278Z,19.17
2018-04-09T00:23:35.882Z,19.90
2018-04-09T00:26:04.235Z,20.30
2018-04-09T00:28:31.806Z,19.10
2018-04-09T00:30:59.426Z,20.03
2018-04-09T00:33:27.020Z,19.33
2018-04-09T00:35:54.579Z,20.20
2018-04-09T00:38:22.192Z,20.07
2018-04-09T00:40:49.785Z,20.00
2018-04-09T00:43:17.398Z,19.67
2018-04-09T00:45:45.011Z,20.23
2018-04-09T00:48:12.589Z,20.50
2018-04-09T00:50:40.155Z,21.23
2018-04-09T00:53:08.504Z,24.43
2018-04-09T00:55:36.091Z,24.93
2018-04-09T00:58:03.662Z,24.93
2018-04-09T01:00:32.029Z,26.33
2018-04-09T01:02:59.598Z,26.87
2018-04-09T01:05:27.946Z,28.93
2018-04-09T01:07:55.546Z,28.87
2018-04-09T01:10:23.891Z,28.97
2018-04-09T01:12:51.467Z,28.47
2018-04-09T01:15:19.855Z,31.00
2018-04-09T01:17:48.212Z,30.17
2018-04-09T01:20:15.784Z,30.03
2018-04-09T01:22:44.180Z,30.57
2018-04-09T01:25:12.520Z,32.00
2018-04-09T01:27:40.106Z,32.13
2018-04-09T01:30:07.694Z,32.13
2018-04-09T01:32:35.280Z,32.30
2018-04-09T01:35:02.885Z,33.87
2018-04-09T01:37:30.459Z,33.60
2018-04-09T01:39:58.806Z,34.07
2018-04-09T01:42:26.388Z,33.77
2018-04-09T01:44:54.751Z,33.57
2018-04-09T01:47:22.344Z,33.93
2018-04-09T01:49:50.674Z,34.67
2018-04-09T01:52:18.275Z,34.33
2018-04-09T01:54:47.345Z,33.90
2018-04-09T01:57:14.936Z,35.27
2018-04-09T01:59:43.978Z,35.47
2018-04-09T02:02:11.563Z,35.40
2018-04-09T02:04:39.154Z,35.27
2018-04-09T02:07:07.519Z,36.40
2018-04-09T02:09:35.855Z,36.90
2018-04-09T02:12:03.462Z,36.63
2018-04-09T02:14:31.795Z,36.60
2018-04-09T02:16:59.385Z,36.20
2018-04-09T02:19:26.959Z,36.97
2018-04-09T02:21:54.561Z,36.53
2018-04-09T02:24:22.163Z,37.70
2018-04-09T02:26:49.735Z,37.33
2018-04-09T02:29:18.070Z,37.03
2018-04-09T02:31:45.652Z,38.10
2018-04-09T02:34:13.254Z,38.20
2018-04-09T02:36:40.839Z,37.50
2018-04-09T02:39:08.408Z,37.17
2018-04-09T02:41:35.992Z,36.27
2018-04-09T02:44:04.346Z,37.07
2018-04-09T02:46:31.944Z,37.40
2018-04-09T02:48:59.516Z,38.30
2018-04-09T02:51:27.867Z,36.47
2018-04-09T02:53:55.436Z,37.40
2018-04-09T02:56:23.040Z,37.30
2018-04-09T02:58:50.608Z,36.23
2018-04-09T03:01:18.191Z,37.37
2018-04-09T03:03:45.764Z,37.60
2018-04-09T03:06:13.350Z,37.80
2018-04-09T03:08:40.923Z,37.80
2018-04-09T03:11:09.273Z,37.40
2018-04-09T03:13:36.901Z,38.17
2018-04-09T03:16:04.484Z,38.00
2018-04-09T03:18:32.056Z,36.57
2018-04-09T03:20:59.664Z,37.70
2018-04-09T03:23:27.244Z,36.60
2018-04-09T03:25:54.848Z,37.40
2018-04-09T03:28:22.411Z,36.83
2018-04-09T03:30:49.983Z,37.20
2018-04-09T03:33:18.328Z,36.63
2018-04-09T03:35:45.906Z,37.83
2018-04-09T03:38:13.472Z,37.60
2018-04-09T03:40:41.046Z,46.20
2018-04-09T03:43:09.383Z,43.20
2018-04-09T03:45:36.968Z,41.30
2018-04-09T03:48:04.571Z,42.97
2018-04-09T03:50:32.169Z,40.17
2018-04-09T03:52:59.747Z,37.97
2018-04-09T03:55:27.344Z,38.53
2018-04-09T03:57:54.931Z,37.87
2018-04-09T04:00:22.500Z,36.53
2018-04-09T04:02:50.089Z,35.63
2018-04-09T04:05:17.667Z,36.87
2018-04-09T04:07:46.008Z,36.57
2018-04-09T04:10:13.591Z,36.63
2018-04-09T04:12:41.169Z,35.53
2018-04-09T04:15:09.512Z,42.77
2018-04-09T04:17:48.887Z,38.30
2018-04-09T04:20:28.938Z,35.67
2018-04-09T04:22:56.528Z,36.50
2018-04-09T04:25:24.120Z,37.03
2018-04-09T04:27:51.701Z,36.50
2018-04-09T04:30:19.303Z,35.23
2018-04-09T04:32:46.874Z,37.10
2018-04-09T04:35:14.450Z,37.30
2018-04-09T04:37:42.027Z,36.17
2018-04-09T04:40:09.615Z,36.93
2018-04-09T04:42:37.949Z,37.67
2018-04-09T04:45:05.538Z,39.90
2018-04-09T04:47:33.117Z,37.93
2018-04-09T04:50:01.447Z,38.70
2018-04-09T04:52:29.038Z,39.67
2018-04-09T04:54:56.608Z,43.83
2018-04-09T04:57:24.946Z,38.80
2018-04-09T04:59:52.536Z,36.77
2018-04-09T05:02:20.109Z,38.07
2018-04-09T05:04:48.451Z,37.37
2018-04-09T05:07:16.092Z,37.57
2018-04-09T05:09:43.714Z,37.53
2018-04-09T05:12:12.071Z,38.23
2018-04-09T05:14:39.641Z,37.67
2018-04-09T05:17:07.212Z,36.50
2018-04-09T05:19:35.538Z,40.80
2018-04-09T05:22:03.120Z,38.60
2018-04-09T05:24:30.725Z,39.87
2018-04-09T05:26:58.335Z,38.87
2018-04-09T05:29:25.904Z,40.60
2018-04-09T05:31:53.495Z,40.83
2018-04-09T05:34:21.837Z,39.50
2018-04-09T05:36:49.426Z,41.40
2018-04-09T05:39:17.770Z,40.97
2018-04-09T05:41:45.347Z,40.07
2018-04-09T05:44:12.926Z,40.77
2018-04-09T05:46:41.273Z,40.47
2018-04-09T05:49:08.841Z,39.30
2018-04-09T05:51:36.420Z,39.93
2018-04-09T05:54:03.989Z,40.53
2018-04-09T05:56:32.330Z,39.70
2018-04-09T05:58:59.923Z,38.47
2018-04-09T06:01:28.321Z,39.60
2018-04-09T06:03:55.902Z,39.20
2018-04-09T06:06:23.474Z,39.83
2018-04-09T06:08:51.059Z,40.10
2018-04-09T06:11:18.635Z,38.80
2018-04-09T06:13:46.208Z,39.80
2018-04-09T06:16:14.597Z,39.03
2018-04-09T06:18:42.923Z,39.87
2018-04-09T06:21:10.494Z,39.63
2018-04-09T06:23:38.079Z,38.47
2018-04-09T06:26:05.652Z,39.00
2018-04-09T06:28:33.989Z,38.07
2018-04-09T06:31:01.662Z,39.10
2018-04-09T06:33:29.245Z,37.30
2018-04-09T06:35:57.593Z,38.27
2018-04-09T06:38:25.168Z,40.33
2018-04-09T06:40:52.752Z,38.57
2018-04-09T06:43:21.087Z,39.07
2018-04-09T06:45:48.672Z,39.80
2018-04-09T06:48:16.247Z,39.13
2018-04-09T06:50:43.876Z,38.17
2018-04-09T06:53:11.456Z,38.97
2018-04-09T06:55:39.062Z,38.63
2018-04-09T06:58:07.480Z,38.10
2018-04-09T07:00:35.071Z,38.93
2018-04-09T07:03:02.636Z,36.93
2018-04-09T07:05:31.013Z,37.43
2018-04-09T07:07:59.348Z,38.10
2018-04-09T07:10:26.926Z,36.60
2018-04-09T07:12:54.959Z,37.87
2018-04-09T07:15:22.556Z,38.73
2018-04-09T07:17:50.938Z,38.10
2018-04-09T07:20:18.519Z,37.37
2018-04-09T07:22:46.105Z,37.07
2018-04-09T07:25:14.352Z,37.93
2018-04-09T07:27:42.690Z,36.00
2018-04-09T07:30:10.274Z,36.20
2018-04-09T07:32:37.838Z,35.97
2018-04-09T07:35:05.425Z,34.90
2018-04-09T07:37:32.994Z,35.47
2018-04-09T07:40:00.585Z,37.73
2018-04-09T07:42:28.414Z,37.90
2018-04-09T07:44:56.809Z,35.83
2018-04-09T07:47:24.919Z,36.00
2018-04-09T07:49:53.312Z,36.07
2018-04-09T07:52:20.937Z,35.27
2018-04-09T07:54:48.566Z,34.10
2018-04-09T07:57:16.898Z,34.60
2018-04-09T07:59:44.501Z,35.13
2018-04-09T08:02:12.852Z,33.30
2018-04-09T08:04:40.433Z,34.00
2018-04-09T08:07:08.775Z,36.03
2018-04-09T08:09:37.117Z,36.13
2018-04-09T08:12:04.686Z,36.23
2018-04-09T08:14:32.398Z,35.60
2018-04-09T08:17:00.013Z,34.73
2018-04-09T08:19:27.610Z,35.07
2018-04-09T08:21:55.186Z,34.83
2018-04-09T08:24:22.771Z,34.53
2018-04-09T08:26:50.355Z,33.73
2018-04-09T08:29:17.928Z,32.63
2018-04-09T08:31:45.507Z,32.37
2018-04-09T08:34:13.181Z,33.20
2018-04-09T08:36:41.560Z,32.57
2018-04-09T08:39:09.131Z,32.13
2018-04-09T08:41:36.744Z,31.20
2018-04-09T08:44:04.313Z,30.23
2018-04-09T08:46:31.895Z,31.17
2018-04-09T08:48:59.474Z,29.53
2018-04-09T08:51:27.823Z,31.27
2018-04-09T08:53:55.403Z,30.60
2018-04-09T08:56:22.979Z,31.03
2018-04-09T08:58:51.311Z,29.33
2018-04-09T09:01:18.896Z,28.47
2018-04-09T09:03:46.475Z,29.23
2018-04-09T09:06:14.820Z,28.33
2018-04-09T09:08:42.409Z,27.67
2018-04-09T09:11:10.755Z,27.07
2018-04-09T09:13:38.360Z,27.43
2018-04-09T09:16:06.768Z,27.87
2018-04-09T09:18:34.336Z,28.10
2018-04-09T09:21:01.919Z,25.80
2018-04-09T09:23:29.501Z,25.73
2018-04-09T09:25:57.109Z,24.97
2018-04-09T09:28:24.720Z,26.07
2018-04-09T09:30:52.307Z,23.10
2018-04-09T09:33:20.648Z,24.03
2018-04-09T09:35:48.226Z,21.37
2018-04-09T09:38:15.945Z,20.57
2018-04-09T09:40:44.956Z,22.07
2018-04-09T09:43:12.576Z,23.13
2018-04-09T09:45:40.153Z,22.77
2018-04-09T09:48:07.725Z,23.87
2018-04-09T09:50:35.330Z,23.27
2018-04-09T09:53:02.963Z,22.63
2018-04-09T09:55:30.677Z,22.17
2018-04-09T09:57:58.242Z,21.63
2018-04-09T10:00:31.533Z,21.47
2018-04-09T10:02:59.095Z,19.83
2018-04-09T10:05:35.108Z,18.50
2018-04-09T10:08:02.693Z,18.67
2018-04-09T10:10:31.062Z,20.00
2018-04-09T10:12:58.641Z,20.97
2018-04-09T10:15:26.234Z,21.87
2018-04-09T10:17:53.803Z,22.37
2018-04-09T10:20:21.434Z,23.27
2018-04-09T10:22:49.781Z,22.00
2018-04-09T10:25:17.371Z,23.37
2018-04-09T10:27:44.971Z,22.07
2018-04-09T10:30:12.558Z,24.00
2018-04-09T10:32:40.159Z,21.93
2018-04-09T10:35:07.752Z,22.10
2018-04-09T10:37:35.331Z,19.17
2018-04-09T10:40:03.729Z,20.57
2018-04-09T10:42:32.067Z,20.80
2018-04-09T10:44:59.660Z,19.53
2018-04-09T10:47:27.230Z,18.93
2018-04-09T10:49:55.572Z,19.40
2018-04-09T10:52:23.140Z,18.57
2018-04-09T10:54:50.733Z,19.17
2018-04-09T10:57:19.076Z,17.00
2018-04-09T10:59:46.718Z,20.43
2018-04-09T11:02:14.293Z,21.80
2018-04-09T11:04:41.884Z,21.33
2018-04-09T11:07:09.451Z,20.50
2018-04-09T11:09:37.828Z,20.70
2018-04-09T11:12:06.185Z,19.20
2018-04-09T11:14:33.799Z,19.37
2018-04-09T11:17:01.404Z,17.80
2018-04-09T11:19:29.068Z,17.23
2018-04-09T11:21:56.775Z,16.47
2018-04-09T11:24:24.401Z,16.10
2018-04-09T11:26:52.950Z,16.80
2018-04-09T11:29:20.522Z,16.53
2018-04-09T11:31:48.140Z,16.43
2018-04-09T11:34:15.722Z,17.07
2018-04-09T11:36:43.495Z,17.23
2018-04-09T11:39:11.070Z,16.30
2018-04-09T11:41:38.635Z,17.10
2018-04-09T11:44:06.219Z,16.57
2018-04-09T11:46:33.799Z,18.20
2018-04-09T11:49:02.157Z,17.20
2018-04-09T11:51:30.553Z,16.60
2018-04-09T11:53:58.896Z,15.43
2018-04-09T11:56:26.491Z,14.70
2018-04-09T11:58:54.855Z,16.73
2018-04-09T12:01:22.459Z,16.20
2018-04-09T12:03:50.056Z,17.83
2018-04-09T12:06:17.617Z,16.67
2018-04-09T12:08:45.246Z,16.60
2018-04-09T12:11:12.895Z,16.83
2018-04-09T12:13:40.521Z,16.80
2018-04-09T12:16:08.220Z,16.43
2018-04-09T12:18:35.816Z,15.50
2018-04-09T12:21:03.385Z,15.43
2018-04-09T12:23:30.949Z,15.03
2018-04-09T12:25:58.521Z,14.43
2018-04-09T12:28:26.105Z,14.20
2018-04-09T12:30:54.527Z,14.00
2018-04-09T12:33:22.137Z,13.13
2018-04-09T12:35:50.479Z,12.77
2018-04-09T12:38:18.048Z,13.07
2018-04-09T12:40:45.641Z,13.83
2018-04-09T12:43:13.993Z,13.23
2018-04-09T12:45:41.609Z,13.43
2018-04-09T12:48:09.198Z,12.97
2018-04-09T12:50:36.884Z,12.03
2018-04-09T12:53:04.499Z,12.73
2018-04-09T12:55:32.068Z,11.83
2018-04-09T12:57:59.638Z,12.00
2018-04-09T13:00:27.301Z,12.10
2018-04-09T13:02:54.878Z,11.87
2018-04-09T13:05:22.443Z,11.43
2018-04-09T13:07:50.035Z,11.20
2018-04-09T13:10:18.378Z,11.53
2018-04-09T13:12:46.009Z,10.43
2018-04-09T13:15:13.588Z,10.60
2018-04-09T13:17:41.185Z,10.43
2018-04-09T13:20:09.524Z,11.17
2018-04-09T13:22:37.101Z,10.50
2018-04-09T13:25:04.675Z,9.87
2018-04-09T13:27:33.040Z,10.13
2018-04-09T13:30:00.641Z,10.23
2018-04-09T13:32:28.228Z,10.13
2018-04-09T13:34:55.794Z,10.23
2018-04-09T13:37:23.368Z,10.13
2018-04-09T13:39:50.956Z,10.10
2018-04-09T13:42:18.539Z,10.57
2018-04-09T13:44:46.105Z,9.37
2018-04-09T13:47:14.449Z,10.20
2018-04-09T13:49:42.041Z,10.47
2018-04-09T13:52:09.662Z,9.80
2018-04-09T13:54:37.247Z,9.80
2018-04-09T13:57:05.605Z,10.70
2018-04-09T13:59:33.185Z,10.17
2018-04-09T14:02:01.532Z,9.63
2018-04-09T14:04:29.101Z,10.57
2018-04-09T14:06:56.688Z,10.53
2018-04-09T14:09:25.055Z,10.57
2018-04-09T14:11:53.570Z,10.30
2018-04-09T14:14:21.133Z,10.20
2018-04-09T14:16:48.718Z,11.43
2018-04-09T14:19:16.329Z,10.50
2018-04-09T14:21:44.688Z,9.83
2018-04-09T14:24:12.249Z,10.63
2018-04-09T14:26:39.828Z,10.60
2018-04-09T14:29:07.518Z,10.47
2018-04-09T14:31:35.110Z,11.00
2018-04-09T14:34:02.681Z,10.57
2018-04-09T14:36:30.390Z,10.60
2018-04-09T14:38:57.995Z,10.17
2018-04-09T14:41:25.709Z,9.93
2018-04-09T14:43:54.064Z,10.00
2018-04-09T14:46:21.656Z,9.77
2018-04-09T14:48:49.217Z,9.67
2018-04-09T14:51:16.808Z,9.50
2018-04-09T14:53:44.408Z,9.97
2018-04-09T14:56:12.000Z,10.20
2018-04-09T14:58:39.618Z,9.53
2018-04-09T15:01:07.765Z,9.50
2018-04-09T15:03:35.554Z,10.80
2018-04-09T15:06:03.204Z,10.17
2018-04-09T15:08:30.879Z,10.13
2018-04-09T15:10:58.532Z,9.60
2018-04-09T15:13:26.182Z,9.93
2018-04-09T15:15:53.905Z,9.70
2018-04-09T15:18:22.259Z,9.70
2018-04-09T15:20:49.908Z,10.37
2018-04-09T15:23:17.809Z,9.90
2018-04-09T15:25:46.141Z,11.53
2018-04-09T15:28:13.876Z,11.27
2018-04-09T15:30:41.516Z,10.43
2018-04-09T15:33:09.872Z,10.57
2018-04-09T15:35:38.965Z,9.73
2018-04-09T15:38:06.542Z,9.83
2018-04-09T15:40:34.150Z,10.03
2018-04-09T15:43:01.744Z,10.63
2018-04-09T15:45:30.153Z,12.53
2018-04-09T15:47:57.762Z,14.40
2018-04-09T15:50:25.328Z,14.27
2018-04-09T15:52:53.000Z,13.73
2018-04-09T15:55:20.602Z,13.50
2018-04-09T15:57:48.286Z,14.57
2018-04-09T16:00:15.895Z,14.57
2018-04-09T16:02:43.474Z,15.18
2018-04-09T16:05:11.829Z,14.40
2018-04-09T16:07:40.183Z,13.53
2018-04-09T16:10:07.852Z,13.60
2018-04-09T16:12:36.254Z,14.10
2018-04-09T16:15:03.858Z,15.87
2018-04-09T16:17:31.564Z,15.47
2018-04-09T16:19:59.161Z,14.77
2018-04-09T16:22:27.499Z,14.10
2018-04-09T16:24:55.940Z,13.07
2018-04-09T16:27:23.526Z,13.07
2018-04-09T16:29:51.894Z,13.03
2018-04-09T16:32:19.619Z,12.47
2018-04-09T16:34:48.002Z,12.67
2018-04-09T16:37:18.646Z,12.40
2018-04-09T16:39:46.289Z,13.20
2018-04-09T16:42:14.715Z,12.07
2018-04-09T16:44:42.338Z,12.97
2018-04-09T16:47:10.705Z,12.47
2018-04-09T16:49:39.064Z,12.50
2018-04-09T16:52:06.707Z,12.57
2018-04-09T16:54:34.289Z,12.47
2018-04-09T16:57:01.886Z,11.50
2018-04-09T16:59:29.573Z,12.47
2018-04-09T17:01:57.168Z,14.43
2018-04-09T17:04:24.766Z,13.55
2018-04-09T17:06:52.390Z,13.17
2018-04-09T17:09:20.015Z,13.38
2018-04-09T17:11:48.373Z,13.35
2018-04-09T17:14:15.958Z,13.53
2018-04-09T17:16:43.593Z,11.70
2018-04-09T17:19:11.212Z,12.80
2018-04-09T17:21:38.811Z,11.87
2018-04-09T17:24:07.149Z,11.80
2018-04-09T17:26:34.749Z,11.93
2018-04-09T17:29:03.132Z,12.70
2018-04-09T17:31:31.505Z,12.13
2018-04-09T17:33:59.124Z,12.10
2018-04-09T17:36:26.709Z,11.93
2018-04-09T17:38:54.282Z,11.60
2018-04-09T17:41:22.681Z,11.77
2018-04-09T17:43:50.950Z,12.23
2018-04-09T17:46:18.564Z,12.33
2018-04-09T17:48:46.196Z,12.23
2018-04-09T17:51:13.810Z,12.07
2018-04-09T17:53:41.417Z,12.37
2018-04-09T17:56:09.018Z,11.60
2018-04-09T17:58:38.177Z,11.90
2018-04-09T18:01:05.767Z,12.10
2018-04-09T18:03:33.349Z,12.13
2018-04-09T18:06:01.005Z,11.63
2018-04-09T18:08:28.610Z,11.80
2018-04-09T18:10:56.183Z,11.93
2018-04-09T18:13:23.794Z,11.73
2018-04-09T18:15:52.148Z,11.53
2018-04-09T18:18:19.734Z,12.10
2018-04-09T18:20:48.099Z,12.97
2018-04-09T18:23:15.668Z,12.17
2018-04-09T18:25:43.386Z,12.13
2018-04-09T18:28:11.038Z,12.63
2018-04-09T18:30:38.651Z,21.77
2018-04-09T18:33:07.749Z,15.17
2018-04-09T18:35:35.376Z,12.53
2018-04-09T18:38:02.957Z,12.60
2018-04-09T18:40:30.541Z,12.67
2018-04-09T18:42:58.910Z,12.30
2018-04-09T18:45:26.515Z,12.83
2018-04-09T18:47:54.107Z,12.67
2018-04-09T18:50:21.685Z,12.17
2018-04-09T18:52:49.270Z,12.80
2018-04-09T18:55:17.673Z,12.23
2018-04-09T18:57:45.255Z,12.67
2018-04-09T19:00:12.836Z,12.47
2018-04-09T19:02:40.508Z,12.27
2018-04-09T19:05:08.092Z,12.80
2018-04-09T19:07:36.446Z,13.03
2018-04-09T19:10:04.021Z,13.60
2018-04-09T19:12:32.361Z,13.27
2018-04-09T19:14:59.963Z,13.13
2018-04-09T19:17:27.881Z,13.57
2018-04-09T19:19:56.502Z,13.37
2018-04-09T19:22:24.088Z,13.30
2018-04-09T19:24:52.437Z,13.87
2018-04-09T19:27:20.149Z,13.50
2018-04-09T19:29:48.489Z,14.40
2018-04-09T19:32:16.068Z,16.57
2018-04-09T19:34:50.029Z,14.27
2018-04-09T19:37:23.412Z,14.33
2018-04-09T19:39:56.911Z,14.67
2018-04-09T19:48:06.664Z,14.93
2018-04-09T19:50:34.242Z,15.43
2018-04-09T19:53:01.863Z,14.67
2018-04-09T19:55:29.529Z,13.87
2018-04-09T19:57:57.902Z,14.50
2018-04-09T20:00:25.473Z,14.47
2018-04-09T20:02:53.998Z,14.07
2018-04-09T20:05:22.140Z,14.60
2018-04-09T20:07:50.513Z,15.30
2018-04-09T20:10:18.908Z,15.17
2018-04-09T20:12:46.911Z,14.90
2018-04-09T20:15:14.843Z,15.20
2018-04-09T20:17:42.409Z,15.50
2018-04-09T20:20:10.034Z,15.27
2018-04-09T20:22:37.705Z,13.47
2018-04-09T20:25:06.073Z,15.73
2018-04-09T20:27:33.672Z,16.40
2018-04-09T20:30:01.561Z,16.57
2018-04-09T20:32:29.136Z,16.40
2018-04-09T20:34:56.898Z,17.07
2018-04-09T20:37:24.490Z,16.70
2018-04-09T20:39:52.946Z,16.47
2018-04-09T20:42:20.696Z,16.90
2018-04-09T20:44:48.273Z,16.70
2018-04-09T20:47:15.870Z,16.00
2018-04-09T20:49:44.214Z,17.30
2018-04-09T20:52:11.857Z,17.73
2018-04-09T20:54:39.472Z,18.43
2018-04-09T20:57:09.025Z,18.00
2018-04-09T20:59:36.594Z,17.50
2018-04-09T21:02:04.204Z,19.87
2018-04-09T21:04:32.543Z,19.47
2018-04-09T21:07:01.140Z,18.90
2018-04-09T21:09:29.524Z,19.90
2018-04-09T21:11:57.193Z,18.80
2018-04-09T21:14:24.938Z,19.00
2018-04-09T21:16:52.659Z,19.43
2018-04-09T21:19:20.559Z,20.80
2018-04-09T21:21:48.193Z,20.53
2018-04-09T21:24:15.967Z,21.63
2018-04-09T21:26:43.847Z,21.80
2018-04-09T21:29:11.448Z,22.03
2018-04-09T21:31:39.877Z,21.47
2018-04-09T21:34:07.598Z,21.83
2018-04-09T21:36:35.941Z,22.50
2018-04-09T21:39:03.506Z,23.20
2018-04-09T21:41:31.146Z,23.00
2018-04-09T21:43:58.717Z,22.60
2018-04-09T21:46:26.318Z,22.63
2018-04-09T21:48:54.888Z,24.93
2018-04-09T21:51:22.473Z,24.53
2018-04-09T21:53:50.193Z,24.77
2018-04-09T21:56:17.800Z,24.73
2018-04-09T21:58:46.244Z,25.40
2018-04-09T22:01:13.846Z,24.47
2018-04-09T22:03:41.436Z,24.60
2018-04-09T22:06:09.092Z,25.00
2018-04-09T22:08:36.673Z,24.77
2018-04-09T22:11:04.264Z,24.73
2018-04-09T22:13:32.614Z,25.93
2018-04-09T22:16:00.181Z,25.17
2018-04-09T22:18:28.024Z,25.30
2018-04-09T22:20:55.597Z,24.83
2018-04-09T22:23:23.171Z,27.47
2018-04-09T22:25:50.751Z,26.13
2018-04-09T22:28:19.081Z,25.17
2018-04-09T22:30:46.686Z,25.13
2018-04-09T22:33:14.256Z,25.77
2018-04-09T22:35:42.603Z,25.80
2018-04-09T22:38:10.192Z,25.80
2018-04-09T22:40:38.547Z,27.03
2018-04-09T22:43:06.117Z,26.30
2018-04-09T22:45:33.789Z,25.03
2018-04-09T22:48:02.183Z,25.23
2018-04-09T22:50:30.522Z,26.57
2018-04-09T22:52:58.084Z,26.03
2018-04-09T22:55:25.688Z,27.27
2018-04-09T22:57:53.259Z,26.07
2018-04-09T23:00:20.841Z,26.43
2018-04-09T23:02:48.426Z,27.17
2018-04-09T23:05:16.304Z,26.87
2018-04-09T23:07:43.868Z,27.40
2018-04-09T23:10:11.451Z,27.67
2018-04-09T23:12:39.816Z,27.33
2018-04-09T23:15:08.240Z,25.97
2018-04-09T23:17:35.813Z,27.90
2018-04-09T23:20:03.409Z,27.73
2018-04-09T23:22:35.486Z,29.10
2018-04-09T23:25:03.853Z,26.83
2018-04-09T23:27:33.377Z,27.77
2018-04-09T23:30:01.734Z,27.77
2018-04-09T23:32:29.315Z,27.53
2018-04-09T23:34:57.661Z,27.97
2018-04-09T23:37:25.280Z,27.37
2018-04-09T23:39:52.870Z,27.00
2018-04-09T23:42:20.456Z,28.10
2018-04-09T23:44:48.036Z,27.87
2018-04-09T23:47:16.385Z,28.23
2018-04-09T23:49:44.081Z,28.07
2018-04-09T23:52:12.404Z,28.30
2018-04-09T23:54:39.996Z,28.80
2018-04-09T23:57:07.682Z,28.43
2018-04-09T23:59:36.039Z,28.50
